Time;durP1;ratioP1;P1;durP2;ratioP2;P2;SDS_P1;SDS_P2;PMS_P1;PMS_P2;Temp;Humidity;BMP_temperature;BMP_pressure;BME280_temperature;BME280_humidity;BME280_pressure;Samples;Min_cycle;Max_cycle;Signal;HPM_P1;HPM_P2
2022/04/04 00:00:46;;;;;;;5.32;3.00;;;1.70;99.90;;;;;;4964207;28;20059;-88
2022/04/04 00:03:12;;;;;;;4.32;2.42;;;1.70;99.90;;;;;;4969529;28;20027;-88
2022/04/04 00:05:38;;;;;;;6.05;2.83;;;1.70;99.90;;;;;;4970609;28;20022;-87
2022/04/04 00:08:04;;;;;;;7.60;3.40;;;1.70;99.90;;;;;;4973504;28;20398;-87
2022/04/04 00:10:30;;;;;;;6.10;3.25;;;1.70;99.90;;;;;;4969070;28;20027;-88
2022/04/04 00:12:56;;;;;;;8.18;3.47;;;1.70;99.90;;;;;;4979420;28;20137;-88
2022/04/04 00:15:21;;;;;;;3.72;2.22;;;1.70;99.90;;;;;;4974600;28;20023;-87
2022/04/04 00:17:47;;;;;;;6.32;3.05;;;1.70;99.90;;;;;;4975420;28;20041;-88
2022/04/04 00:20:13;;;;;;;8.40;3.00;;;1.70;99.90;;;;;;4971469;28;20501;-87
2022/04/04 00:22:41;;;;;;;7.40;3.55;;;1.70;99.90;;;;;;4972372;28;20034;-88
2022/04/04 00:25:07;;;;;;;8.10;3.42;;;1.70;99.90;;;;;;4974836;28;20034;-87
2022/04/04 00:27:33;;;;;;;8.88;2.70;;;1.70;99.90;;;;;;4970161;28;20038;-87
2022/04/04 00:29:58;;;;;;;7.28;2.50;;;1.70;99.90;;;;;;4961518;28;20027;-87
2022/04/04 00:32:24;;;;;;;5.68;3.38;;;1.70;99.90;;;;;;4975638;28;20030;-87
2022/04/04 00:34:49;;;;;;;5.88;2.92;;;1.70;99.90;;;;;;4966100;28;20053;-87
2022/04/04 00:37:15;;;;;;;8.00;3.00;;;1.70;99.90;;;;;;4966041;28;20038;-87
2022/04/04 00:39:41;;;;;;;8.68;4.25;;;1.70;99.90;;;;;;4966834;28;20030;-87
2022/04/04 00:42:07;;;;;;;5.80;3.25;;;1.70;99.90;;;;;;4979674;28;20031;-87
2022/04/04 00:44:32;;;;;;;6.05;3.05;;;1.70;99.90;;;;;;4963848;28;20097;-87
2022/04/04 00:46:58;;;;;;;7.85;3.00;;;1.70;99.90;;;;;;4972908;28;20069;-87
2022/04/04 00:49:24;;;;;;;6.65;3.38;;;1.70;99.90;;;;;;4974345;28;20022;-87
2022/04/04 00:51:50;;;;;;;6.82;3.42;;;1.60;99.90;;;;;;4979221;28;20089;-86
2022/04/04 00:54:16;;;;;;;9.57;4.25;;;1.70;99.90;;;;;;4978364;28;20033;-87
2022/04/04 00:56:41;;;;;;;6.47;2.83;;;1.70;99.90;;;;;;4978598;28;20100;-88
2022/04/04 00:59:13;;;;;;;6.93;3.30;;;1.60;99.90;;;;;;4967486;28;20023;-88
2022/04/04 01:01:39;;;;;;;9.55;4.25;;;1.60;99.90;;;;;;4977688;28;20027;-88
2022/04/04 01:04:05;;;;;;;7.50;3.80;;;1.70;99.90;;;;;;4968318;28;20611;-89
2022/04/04 01:06:31;;;;;;;6.88;3.88;;;1.70;99.90;;;;;;4972130;28;20482;-88
2022/04/04 01:08:56;;;;;;;7.65;3.95;;;1.60;99.90;;;;;;4979882;28;20042;-88
2022/04/04 01:11:22;;;;;;;7.72;3.97;;;1.60;99.90;;;;;;4978856;28;20072;-88
2022/04/04 01:13:48;;;;;;;7.63;3.53;;;1.60;99.90;;;;;;4978231;28;20037;-88
2022/04/04 01:16:13;;;;;;;10.45;4.32;;;1.60;99.90;;;;;;4978127;28;20038;-88
2022/04/04 01:18:40;;;;;;;8.38;3.90;;;1.60;99.90;;;;;;4977037;28;20305;-88
2022/04/04 01:21:06;;;;;;;9.43;4.18;;;1.60;99.90;;;;;;4976404;28;20139;-89
2022/04/04 01:23:39;;;;;;;6.75;3.78;;;1.60;99.90;;;;;;4978504;28;20553;-89
2022/04/04 01:26:06;;;;;;;9.05;3.80;;;1.70;99.90;;;;;;4978034;28;20030;-88
2022/04/04 01:28:32;;;;;;;8.93;4.18;;;1.70;99.90;;;;;;4976260;28;20556;-89
2022/04/04 01:30:57;;;;;;;7.18;4.15;;;1.70;99.90;;;;;;4974305;28;20027;-88
2022/04/04 01:33:22;;;;;;;7.75;4.57;;;1.70;99.90;;;;;;4978317;28;20034;-89
2022/04/04 01:35:48;;;;;;;9.48;4.60;;;1.70;99.90;;;;;;4973694;28;20023;-89
2022/04/04 01:38:14;;;;;;;8.05;4.28;;;1.80;99.90;;;;;;4968364;28;20023;-89
2022/04/04 01:40:40;;;;;;;9.88;4.82;;;1.80;99.90;;;;;;4964567;28;20053;-88
2022/04/04 01:43:05;;;;;;;8.43;5.45;;;1.80;99.90;;;;;;4974289;28;20034;-88
2022/04/04 01:48:15;;;;;;;7.55;5.13;;;1.80;99.90;;;;;;4987638;28;20089;-89
2022/04/04 01:50:41;;;;;;;9.60;5.70;;;1.80;99.90;;;;;;4976487;28;20419;-88
2022/04/04 01:55:52;;;;;;;8.60;5.78;;;1.90;99.90;;;;;;4989936;28;20386;-88
2022/04/04 01:58:18;;;;;;;8.90;5.88;;;2.00;99.90;;;;;;4968466;28;20026;-88
2022/04/04 02:00:44;;;;;;;10.68;5.85;;;2.00;99.90;;;;;;4971275;28;20049;-89
2022/04/04 02:03:09;;;;;;;10.00;6.32;;;2.10;99.90;;;;;;4962900;28;20026;-88
2022/04/04 02:05:35;;;;;;;8.95;5.70;;;2.10;99.90;;;;;;4970618;28;20037;-88
2022/04/04 02:08:01;;;;;;;15.15;7.35;;;2.10;99.90;;;;;;4972047;28;20038;-88
2022/04/04 02:10:27;;;;;;;10.82;7.45;;;2.10;99.90;;;;;;4971610;28;20023;-88
2022/04/04 02:12:52;;;;;;;14.73;7.45;;;2.10;99.90;;;;;;4977331;28;20069;-88
2022/04/04 02:15:18;;;;;;;10.68;7.13;;;2.10;99.90;;;;;;4977387;28;20493;-88
2022/04/04 02:17:44;;;;;;;12.15;7.47;;;2.10;99.90;;;;;;4973563;28;20037;-88
2022/04/04 02:20:10;;;;;;;11.10;7.57;;;2.10;99.90;;;;;;4973428;28;20022;-88
2022/04/04 02:22:36;;;;;;;14.40;7.25;;;2.10;99.90;;;;;;4975329;28;20112;-89
2022/04/04 02:25:02;;;;;;;14.57;8.68;;;2.10;99.90;;;;;;4974343;28;20022;-88
2022/04/04 02:27:28;;;;;;;11.15;7.57;;;2.10;99.90;;;;;;4972324;28;20081;-88
2022/04/04 02:29:54;;;;;;;15.73;8.43;;;2.20;99.90;;;;;;4977438;28;20058;-89
2022/04/04 02:32:19;;;;;;;12.55;7.20;;;2.10;99.90;;;;;;4977073;28;20102;-88
2022/04/04 02:34:46;;;;;;;13.07;7.20;;;2.20;99.90;;;;;;4973834;28;20045;-88
2022/04/04 02:37:12;;;;;;;10.05;6.93;;;2.20;99.90;;;;;;4966365;28;20031;-88
2022/04/04 02:39:38;;;;;;;11.15;6.80;;;2.20;99.90;;;;;;4966835;28;20050;-87
2022/04/04 02:42:04;;;;;;;14.15;7.70;;;2.20;99.90;;;;;;4976158;28;20065;-88
2022/04/04 02:44:29;;;;;;;12.25;7.15;;;2.20;99.90;;;;;;4966045;28;20121;-88
2022/04/04 02:46:55;;;;;;;13.00;7.40;;;2.30;99.90;;;;;;4969909;28;20197;-88
2022/04/04 02:49:20;;;;;;;10.23;7.10;;;2.30;99.90;;;;;;4976446;28;20089;-88
2022/04/04 02:51:45;;;;;;;11.55;6.70;;;2.30;99.90;;;;;;4972852;28;20073;-89
2022/04/04 02:54:11;;;;;;;9.07;6.22;;;2.30;99.90;;;;;;4969078;28;20026;-88
2022/04/04 02:56:41;;;;;;;10.85;6.53;;;2.30;99.90;;;;;;4969151;28;20027;-88
2022/04/04 02:59:09;;;;;;;12.02;7.07;;;2.40;99.90;;;;;;4975691;28;20037;-88
2022/04/04 03:01:35;;;;;;;11.73;6.47;;;2.40;99.90;;;;;;4975808;28;20026;-88
2022/04/04 03:04:02;;;;;;;11.95;7.25;;;2.40;99.90;;;;;;4975251;28;20113;-88
2022/04/04 03:06:28;;;;;;;10.18;6.32;;;2.40;99.90;;;;;;4974040;28;20034;-88
2022/04/04 03:08:54;;;;;;;11.77;6.68;;;2.50;99.90;;;;;;4971151;28;20487;-89
2022/04/04 03:11:19;;;;;;;12.77;6.72;;;2.50;99.90;;;;;;4970096;28;20082;-89
2022/04/04 03:13:45;;;;;;;10.02;6.15;;;2.50;99.90;;;;;;4975594;28;20504;-88
2022/04/04 03:16:11;;;;;;;9.30;6.10;;;2.50;99.90;;;;;;4976545;28;20482;-88
2022/04/04 03:18:37;;;;;;;10.45;6.03;;;2.60;99.90;;;;;;4994741;28;20023;-88
2022/04/04 03:21:04;;;;;;;10.80;6.47;;;2.60;99.90;;;;;;4969821;28;20026;-87
2022/04/04 03:23:30;;;;;;;11.98;6.50;;;2.60;99.90;;;;;;4974975;28;20474;-88
2022/04/04 03:25:56;;;;;;;9.75;6.50;;;2.60;99.90;;;;;;4965630;28;20034;-88
2022/04/04 03:28:21;;;;;;;11.82;5.82;;;2.60;99.90;;;;;;4966428;28;20402;-88
2022/04/04 03:30:48;;;;;;;9.73;5.88;;;2.60;99.90;;;;;;4977234;28;20022;-88
2022/04/04 03:33:15;;;;;;;11.13;5.72;;;2.70;99.90;;;;;;4975895;28;20120;-89
2022/04/04 03:35:41;;;;;;;11.38;5.80;;;2.70;99.90;;;;;;4976000;28;20125;-88
2022/04/04 03:38:10;;;;;;;11.57;6.10;;;2.80;99.90;;;;;;4965857;28;20463;-88
2022/04/04 03:40:36;;;;;;;11.40;6.40;;;2.80;99.90;;;;;;4974955;28;20554;-88
2022/04/04 03:43:02;;;;;;;16.60;5.97;;;2.80;99.90;;;;;;4971409;28;20085;-88
2022/04/04 03:45:28;;;;;;;9.30;5.30;;;2.80;99.90;;;;;;4970496;28;20479;-88
2022/04/04 03:47:53;;;;;;;12.00;5.35;;;2.80;99.90;;;;;;4973409;28;20081;-88
2022/04/04 03:50:20;;;;;;;9.52;5.88;;;2.80;99.90;;;;;;4976676;28;20038;-88
2022/04/04 03:52:47;;;;;;;9.77;6.32;;;2.80;99.90;;;;;;4967375;28;20165;-88
2022/04/04 03:55:14;;;;;;;9.18;5.50;;;2.80;99.90;;;;;;4971793;28;20491;-88
2022/04/04 03:57:40;;;;;;;8.10;5.25;;;2.80;99.90;;;;;;4976028;28;20121;-89
2022/04/04 04:00:09;;;;;;;12.15;6.10;;;2.80;99.90;;;;;;4975228;28;20030;-88
2022/04/04 04:02:34;;;;;;;8.77;5.65;;;2.80;99.90;;;;;;4976828;28;20109;-86
2022/04/04 04:05:00;;;;;;;11.38;6.22;;;2.80;99.90;;;;;;4976553;28;20078;-88
2022/04/04 04:07:26;;;;;;;11.13;6.22;;;2.80;99.90;;;;;;4976279;28;20478;-88
2022/04/04 04:09:52;;;;;;;10.93;6.00;;;2.90;99.90;;;;;;4972517;28;20038;-89
2022/04/04 04:12:19;;;;;;;9.68;5.95;;;3.00;99.90;;;;;;4980699;28;20479;-88
2022/04/04 04:14:45;;;;;;;9.00;5.25;;;2.90;99.90;;;;;;4978066;28;20025;-88
2022/04/04 04:17:10;;;;;;;9.45;5.60;;;2.90;99.90;;;;;;4980628;28;20405;-86
2022/04/04 04:22:21;;;;;;;8.82;5.40;;;3.00;99.90;;;;;;4993849;28;20033;-89
2022/04/04 04:24:47;;;;;;;10.95;5.72;;;3.00;99.90;;;;;;4979997;28;21276;-90
2022/04/04 04:27:13;;;;;;;9.30;5.68;;;3.00;99.90;;;;;;4970814;28;20034;-89
2022/04/04 04:29:38;;;;;;;9.85;5.20;;;3.10;99.90;;;;;;4980003;28;20454;-89
2022/04/04 04:32:05;;;;;;;9.50;5.32;;;3.10;99.90;;;;;;4978284;28;20026;-88
2022/04/04 04:34:30;;;;;;;7.85;5.05;;;3.10;99.90;;;;;;4984311;28;20030;-89
2022/04/04 04:36:56;;;;;;;8.45;5.63;;;3.10;99.90;;;;;;4979648;28;20026;-88
2022/04/04 04:39:22;;;;;;;8.68;5.35;;;3.20;99.90;;;;;;4977394;28;20041;-88
2022/04/04 04:41:49;;;;;;;12.55;6.10;;;3.20;99.90;;;;;;4975814;28;20537;-89
2022/04/04 04:44:15;;;;;;;13.43;5.07;;;3.20;99.90;;;;;;4981146;28;20034;-89
2022/04/04 04:46:40;;;;;;;10.88;5.60;;;3.30;99.90;;;;;;4976980;28;20078;-89
2022/04/04 04:49:06;;;;;;;9.32;5.47;;;3.30;99.90;;;;;;4979555;28;20030;-89
2022/04/04 04:51:31;;;;;;;8.45;5.63;;;3.30;99.90;;;;;;4975147;28;20371;-89
2022/04/04 04:53:57;;;;;;;11.93;5.60;;;3.40;99.90;;;;;;4980045;28;20446;-88
2022/04/04 04:56:22;;;;;;;10.15;6.10;;;3.40;99.90;;;;;;4979638;28;20018;-88
2022/04/04 04:58:48;;;;;;;10.50;6.00;;;3.40;99.90;;;;;;4979619;28;20037;-88
2022/04/04 05:01:13;;;;;;;13.20;6.97;;;3.50;99.90;;;;;;4978862;28;20501;-88
2022/04/04 05:03:39;;;;;;;11.63;5.93;;;3.50;99.90;;;;;;4979610;28;20034;-88
2022/04/04 05:06:05;;;;;;;12.38;6.50;;;3.60;99.90;;;;;;4979879;28;20034;-89
2022/04/04 05:08:31;;;;;;;15.98;6.95;;;3.60;99.90;;;;;;4996851;28;20481;-89
2022/04/04 05:10:57;;;;;;;14.45;6.35;;;3.70;99.90;;;;;;4979556;28;20096;-88
2022/04/04 05:13:22;;;;;;;11.60;7.10;;;3.80;99.90;;;;;;4993481;28;20023;-89
2022/04/04 05:15:48;;;;;;;12.02;6.15;;;3.80;99.90;;;;;;4970792;28;20541;-88
2022/04/04 05:18:14;;;;;;;14.75;6.75;;;3.90;99.90;;;;;;4976182;28;20025;-89
2022/04/04 05:20:39;;;;;;;9.25;5.80;;;3.90;99.90;;;;;;4977362;28;20057;-89
2022/04/04 05:23:05;;;;;;;12.82;6.63;;;4.00;99.90;;;;;;4978902;28;20027;-89
2022/04/04 05:25:31;;;;;;;12.88;5.55;;;4.00;99.90;;;;;;4972576;28;20105;-89
2022/04/04 05:27:57;;;;;;;11.88;6.13;;;4.10;99.90;;;;;;4975141;28;20062;-89
2022/04/04 05:30:23;;;;;;;9.80;5.38;;;4.10;99.90;;;;;;4975218;28;20421;-88
2022/04/04 05:32:49;;;;;;;12.57;6.65;;;4.20;99.90;;;;;;4976982;28;20054;-89
2022/04/04 05:35:16;;;;;;;13.70;6.55;;;4.20;99.90;;;;;;4975113;28;20037;-89
2022/04/04 05:37:42;;;;;;;11.38;6.28;;;4.30;99.90;;;;;;4975247;28;20128;-89
2022/04/04 05:40:08;;;;;;;14.02;6.53;;;4.30;99.90;;;;;;4965973;28;20029;-88
2022/04/04 05:42:34;;;;;;;9.35;5.57;;;4.40;99.90;;;;;;4960092;28;20023;-89
2022/04/04 05:45:00;;;;;;;11.63;5.93;;;4.40;99.90;;;;;;4975935;28;20086;-89
2022/04/04 05:47:26;;;;;;;11.48;5.80;;;4.40;99.90;;;;;;4973861;28;20045;-89
2022/04/04 05:49:52;;;;;;;11.60;6.70;;;4.50;99.90;;;;;;4977789;28;20113;-89
2022/04/04 05:52:20;;;;;;;9.20;5.55;;;4.50;99.90;;;;;;4978790;28;20502;-88
2022/04/04 05:54:57;;;;;;;11.40;6.47;;;4.50;99.90;;;;;;4968762;28;20026;-88
2022/04/04 05:57:28;;;;;;;10.55;5.20;;;4.60;99.90;;;;;;4974282;28;20054;-88
2022/04/04 05:59:55;;;;;;;9.75;5.50;;;4.60;99.90;;;;;;4975830;28;20072;-88
2022/04/04 06:02:22;;;;;;;10.63;6.03;;;4.60;99.90;;;;;;4978575;28;20100;-89
2022/04/04 06:04:48;;;;;;;11.07;5.40;;;4.70;99.90;;;;;;4978001;28;20022;-88
2022/04/04 06:07:14;;;;;;;8.88;5.53;;;4.70;99.90;;;;;;4976393;28;20042;-89
2022/04/04 06:09:40;;;;;;;13.77;6.10;;;4.70;99.90;;;;;;4975186;28;20368;-89
2022/04/04 06:12:05;;;;;;;13.23;6.18;;;4.80;99.90;;;;;;4964777;28;20130;-89
2022/04/04 06:14:32;;;;;;;14.10;6.45;;;4.80;99.90;;;;;;4973262;28;20462;-88
2022/04/04 06:16:57;;;;;;;9.57;5.95;;;4.90;99.90;;;;;;4971631;28;20035;-88
2022/04/04 06:19:23;;;;;;;11.32;6.07;;;5.00;99.90;;;;;;4976073;28;20109;-88
2022/04/04 06:21:48;;;;;;;10.52;5.97;;;5.00;99.90;;;;;;4971577;28;20035;-90
2022/04/04 06:24:14;;;;;;;9.85;5.75;;;5.10;99.90;;;;;;4979026;28;20029;-89
2022/04/04 06:26:40;;;;;;;11.77;5.20;;;5.20;99.90;;;;;;4978462;28;20041;-88
2022/04/04 06:29:09;;;;;;;9.75;5.15;;;5.30;99.90;;;;;;4975374;28;20042;-89
2022/04/04 06:31:39;;;;;;;11.63;6.70;;;5.40;99.90;;;;;;4962459;28;20110;-88
2022/04/04 06:34:05;;;;;;;10.60;5.85;;;5.40;99.90;;;;;;4978477;28;20390;-89
2022/04/04 06:36:31;;;;;;;10.40;5.50;;;5.50;99.90;;;;;;4971577;28;20054;-88
2022/04/04 06:38:57;;;;;;;11.65;5.95;;;5.50;99.90;;;;;;4968872;28;20038;-88
2022/04/04 06:41:23;;;;;;;9.38;4.88;;;5.60;99.90;;;;;;4957130;28;20021;-88
2022/04/04 06:43:50;;;;;;;8.35;4.45;;;5.60;99.90;;;;;;4961973;28;20388;-88
2022/04/04 06:46:16;;;;;;;12.90;5.07;;;5.60;99.90;;;;;;4970182;28;20019;-88
2022/04/04 06:48:42;;;;;;;8.52;4.70;;;5.70;99.90;;;;;;4966790;28;20040;-89
2022/04/04 06:51:09;;;;;;;8.95;5.05;;;5.80;99.90;;;;;;4968841;28;20026;-88
2022/04/04 06:53:34;;;;;;;8.02;4.97;;;5.80;99.90;;;;;;4968994;28;20023;-89
2022/04/04 06:56:00;;;;;;;6.63;4.47;;;5.80;99.90;;;;;;4969208;28;20580;-89
2022/04/04 06:58:27;;;;;;;7.60;5.10;;;5.90;99.90;;;;;;4968503;28;20151;-88
2022/04/04 07:00:53;;;;;;;8.00;4.95;;;5.90;99.90;;;;;;4970064;28;20019;-89
2022/04/04 07:03:18;;;;;;;8.00;4.82;;;6.00;99.90;;;;;;4968760;28;20035;-88
2022/04/04 07:05:44;;;;;;;8.98;4.80;;;6.00;99.90;;;;;;4969824;28;20023;-89
2022/04/04 07:08:10;;;;;;;9.50;5.13;;;6.00;99.90;;;;;;4969929;28;20173;-88
2022/04/04 07:10:36;;;;;;;9.52;4.32;;;6.00;99.90;;;;;;4971284;28;20023;-89
2022/04/04 07:13:04;;;;;;;10.70;4.70;;;6.10;99.90;;;;;;4963597;28;20054;-89
2022/04/04 07:15:29;;;;;;;10.27;5.13;;;6.10;99.90;;;;;;4963443;28;20057;-88
2022/04/04 07:17:55;;;;;;;8.93;4.90;;;6.10;99.90;;;;;;4966643;28;20553;-88
2022/04/04 07:20:20;;;;;;;8.05;4.40;;;6.20;99.90;;;;;;4971174;28;20027;-88
2022/04/04 07:22:46;;;;;;;11.57;4.65;;;6.20;99.90;;;;;;4971747;28;20023;-88
2022/04/04 07:25:14;;;;;;;8.30;4.57;;;6.30;99.90;;;;;;4970754;28;20054;-88
2022/04/04 07:27:41;;;;;;;9.73;4.88;;;6.30;99.90;;;;;;4971384;28;20042;-88
2022/04/04 07:30:10;;;;;;;11.38;4.13;;;6.40;99.90;;;;;;4970722;28;20470;-88
2022/04/04 07:32:37;;;;;;;6.70;5.03;;;6.50;99.90;;;;;;4970773;28;20062;-88
2022/04/04 07:35:04;;;;;;;8.30;4.68;;;6.50;99.90;;;;;;4970005;28;20118;-88
2022/04/04 07:37:30;;;;;;;6.80;4.63;;;6.60;99.90;;;;;;4968267;28;20117;-87
2022/04/04 07:39:56;;;;;;;9.73;4.80;;;6.60;99.90;;;;;;4967253;28;20023;-88
2022/04/04 07:42:21;;;;;;;10.38;5.35;;;6.70;99.90;;;;;;4966752;28;20074;-88
2022/04/04 07:44:47;;;;;;;9.35;4.65;;;6.70;99.90;;;;;;4972011;28;20554;-88
2022/04/04 07:47:13;;;;;;;8.45;4.82;;;6.70;99.90;;;;;;4970666;28;20510;-89
2022/04/04 07:49:38;;;;;;;8.32;5.10;;;6.70;99.90;;;;;;4976344;28;20061;-89
2022/04/04 07:52:04;;;;;;;10.43;5.25;;;6.70;99.90;;;;;;4968927;28;20035;-89
2022/04/04 07:54:30;;;;;;;10.27;5.18;;;6.70;99.90;;;;;;4971004;28;20159;-88
2022/04/04 07:56:56;;;;;;;7.75;5.25;;;6.70;99.90;;;;;;4971057;28;20027;-89
2022/04/04 07:59:22;;;;;;;10.20;4.97;;;6.80;99.90;;;;;;4973538;28;20027;-88
2022/04/04 08:01:47;;;;;;;9.15;5.10;;;6.80;99.90;;;;;;4969444;28;20031;-89
2022/04/04 08:04:13;;;;;;;11.48;5.65;;;6.70;99.90;;;;;;4973147;28;20033;-88
2022/04/04 08:06:39;;;;;;;13.20;5.90;;;6.70;99.90;;;;;;4975175;28;20050;-87
2022/04/04 08:09:04;;;;;;;12.77;6.20;;;6.80;99.90;;;;;;4970675;28;20031;-88
2022/04/04 08:11:30;;;;;;;11.65;6.50;;;6.80;99.90;;;;;;4973522;28;20042;-88
2022/04/04 08:13:56;;;;;;;11.40;6.13;;;6.80;99.90;;;;;;4977300;28;20562;-87
2022/04/04 08:16:22;;;;;;;10.60;6.50;;;6.80;99.90;;;;;;4974238;28;20023;-89
2022/04/04 08:18:48;;;;;;;12.88;6.03;;;6.80;99.90;;;;;;4966786;28;20030;-89
2022/04/04 08:21:15;;;;;;;9.80;6.93;;;6.70;99.90;;;;;;4972453;28;20535;-89
2022/04/04 08:23:42;;;;;;;11.70;7.10;;;6.70;99.90;;;;;;4976895;28;20039;-88
2022/04/04 08:26:08;;;;;;;13.43;6.65;;;6.70;99.90;;;;;;4974642;28;20019;-89
2022/04/04 08:28:33;;;;;;;13.85;6.68;;;6.70;99.90;;;;;;4970473;28;20878;-89
2022/04/04 08:30:59;;;;;;;10.50;7.32;;;6.70;99.90;;;;;;4967317;28;20074;-88
2022/04/04 08:33:24;;;;;;;10.95;5.97;;;6.70;99.90;;;;;;4968924;28;20082;-88
2022/04/04 08:35:53;;;;;;;12.27;8.02;;;6.80;99.90;;;;;;4973796;28;20031;-89
2022/04/04 08:38:20;;;;;;;12.30;6.95;;;6.80;99.90;;;;;;4968409;28;20053;-88
2022/04/04 08:40:48;;;;;;;12.07;7.55;;;6.90;99.90;;;;;;4971944;28;20035;-88
2022/04/04 08:43:17;;;;;;;21.75;6.57;;;6.90;99.90;;;;;;4972336;28;20023;-87
2022/04/04 08:45:44;;;;;;;13.02;6.55;;;7.00;99.90;;;;;;4966263;28;20108;-87
2022/04/04 08:48:10;;;;;;;12.80;6.47;;;7.10;99.90;;;;;;4975888;28;20053;-87
2022/04/04 08:50:37;;;;;;;15.20;7.68;;;7.10;99.90;;;;;;4973664;28;20015;-87
2022/04/04 08:53:04;;;;;;;14.13;6.20;;;7.20;99.90;;;;;;4973809;28;20101;-89
2022/04/04 08:55:30;;;;;;;12.35;6.82;;;7.20;99.90;;;;;;4974699;28;20031;-88
2022/04/04 08:57:56;;;;;;;12.63;7.40;;;7.20;99.90;;;;;;4971517;28;20026;-88
2022/04/04 09:00:22;;;;;;;10.20;6.40;;;7.20;99.90;;;;;;4968613;28;20054;-88
2022/04/04 09:03:05;;;;;;;11.50;6.22;;;7.20;99.90;;;;;;4982477;28;20062;-88
2022/04/04 09:05:32;;;;;;;16.27;6.82;;;7.20;99.90;;;;;;4966136;28;20027;-88
2022/04/04 09:08:06;;;;;;;9.82;7.20;;;7.20;99.90;;;;;;4969789;28;20097;-88
2022/04/04 09:10:43;;;;;;;13.70;7.22;;;7.20;99.90;;;;;;4972175;28;20122;-88
2022/04/04 09:13:15;;;;;;;15.43;7.63;;;7.20;99.90;;;;;;4967557;28;20101;-87
2022/04/04 09:15:50;;;;;;;11.70;6.97;;;7.20;99.90;;;;;;4968888;28;20464;-87
2022/04/04 09:18:16;;;;;;;10.18;6.82;;;7.20;99.90;;;;;;4970210;28;20047;-88
2022/04/04 09:20:49;;;;;;;10.25;6.82;;;7.20;99.90;;;;;;4983800;28;20027;-88
2022/04/04 09:23:15;;;;;;;11.75;7.20;;;7.10;99.90;;;;;;4968462;28;20483;-88
2022/04/04 09:25:41;;;;;;;12.43;8.00;;;7.00;99.90;;;;;;4969902;28;20050;-90
2022/04/04 09:28:17;;;;;;;15.75;8.05;;;6.90;99.90;;;;;;4971747;28;20038;-89
2022/04/04 09:30:44;;;;;;;12.32;6.80;;;6.80;99.90;;;;;;4969732;28;20034;-90
2022/04/04 09:33:14;;;;;;;14.98;8.88;;;6.80;99.90;;;;;;4969343;28;20102;-90
2022/04/04 09:35:46;;;;;;;14.77;8.27;;;6.70;99.90;;;;;;4967688;28;20127;-89
2022/04/04 09:38:13;;;;;;;14.95;9.15;;;6.70;99.90;;;;;;4969836;28;20024;-90
2022/04/04 09:40:39;;;;;;;16.05;8.90;;;6.70;99.90;;;;;;4963901;28;20073;-88
2022/04/04 09:43:06;;;;;;;15.45;9.27;;;6.60;99.90;;;;;;4970299;28;20031;-89
2022/04/04 09:45:31;;;;;;;12.45;8.10;;;6.60;99.90;;;;;;4969076;28;20038;-90
2022/04/04 09:47:58;;;;;;;17.88;9.65;;;6.60;99.90;;;;;;4966416;28;20030;-89
2022/04/04 09:50:46;;;;;;;17.17;8.93;;;6.50;99.90;;;;;;4985344;28;20057;-89
2022/04/04 09:53:24;;;;;;;14.13;9.18;;;6.50;99.90;;;;;;4970534;28;20027;-90
2022/04/04 09:56:00;;;;;;;13.82;9.63;;;6.50;99.90;;;;;;4968587;28;20030;-90
2022/04/04 09:58:27;;;;;;;16.58;9.23;;;6.40;99.90;;;;;;4973466;28;20039;-91
2022/04/04 10:00:54;;;;;;;14.13;10.00;;;6.40;99.90;;;;;;4970514;28;20043;-89
2022/04/04 10:03:21;;;;;;;17.67;10.18;;;6.30;99.90;;;;;;4964509;28;20067;-91
2022/04/04 10:05:53;;;;;;;15.38;10.18;;;6.30;99.90;;;;;;4968627;28;20066;-90
2022/04/04 10:08:20;;;;;;;15.82;10.07;;;6.30;99.90;;;;;;4964453;28;20121;-90
2022/04/04 10:10:45;;;;;;;16.67;10.63;;;6.30;99.90;;;;;;4969597;28;20045;-91
2022/04/04 10:13:13;;;;;;;19.05;10.73;;;6.30;99.90;;;;;;4973853;28;20038;-89
2022/04/04 10:15:39;;;;;;;15.95;10.65;;;6.30;99.90;;;;;;4972727;28;20049;-90
2022/04/04 10:18:06;;;;;;;16.90;9.85;;;6.30;99.90;;;;;;4973188;28;20030;-90
2022/04/04 10:20:32;;;;;;;15.13;10.95;;;6.30;99.90;;;;;;4974793;28;20038;-90
2022/04/04 10:22:58;;;;;;;15.30;10.63;;;6.30;99.90;;;;;;4969750;28;20038;-92
2022/04/04 10:25:29;;;;;;;18.52;11.63;;;6.30;99.90;;;;;;4969357;28;20022;-91
2022/04/04 10:27:55;;;;;;;18.05;11.50;;;6.40;99.90;;;;;;4970098;28;20053;-91
2022/04/04 10:30:41;;;;;;;15.77;10.43;;;6.40;99.90;;;;;;4968166;28;20443;-90
2022/04/04 10:33:17;;;;;;;14.55;8.77;;;6.50;99.90;;;;;;4969455;28;20033;-90
2022/04/04 10:35:57;;;;;;;16.20;10.30;;;6.40;99.90;;;;;;4967975;28;20068;-90
2022/04/04 10:38:32;;;;;;;17.35;10.45;;;6.40;99.90;;;;;;4984263;28;20034;-91
2022/04/04 10:41:00;;;;;;;18.02;10.68;;;6.40;99.90;;;;;;4969622;28;20027;-91
2022/04/04 10:43:31;;;;;;;14.52;9.00;;;6.40;99.90;;;;;;4966045;28;20027;-90
2022/04/04 10:46:02;;;;;;;14.77;9.55;;;6.50;99.90;;;;;;4974888;28;20036;-90
2022/04/04 10:48:32;;;;;;;16.35;10.75;;;6.40;99.90;;;;;;4972380;28;20066;-90
2022/04/04 10:51:17;;;;;;;15.23;9.88;;;6.50;99.90;;;;;;4968908;28;20019;-90
2022/04/04 10:53:51;;;;;;;18.38;10.52;;;6.50;99.90;;;;;;4966630;28;20041;-90
2022/04/04 10:56:19;;;;;;;15.70;9.60;;;6.50;99.90;;;;;;4976944;28;20026;-91
2022/04/04 10:58:45;;;;;;;15.38;10.25;;;6.50;99.90;;;;;;4975578;28;20022;-91
2022/04/04 11:01:15;;;;;;;12.43;8.90;;;6.50;99.90;;;;;;4992231;28;20030;-91
2022/04/04 11:03:58;;;;;;;12.45;9.32;;;6.50;99.90;;;;;;4969027;28;20023;-92
2022/04/04 11:09:32;;;;;;;12.27;9.20;;;6.50;99.90;;;;;;4991329;28;20043;-91
2022/04/04 11:12:08;;;;;;;15.20;11.55;;;6.40;99.90;;;;;;4970633;28;20042;-92
2022/04/04 11:14:41;;;;;;;15.07;10.57;;;6.50;99.90;;;;;;4989873;28;20027;-91
2022/04/04 11:20:16;;;;;;;16.77;10.63;;;6.50;99.90;;;;;;4984967;28;20037;-90
2022/04/04 11:22:46;;;;;;;13.40;8.93;;;6.50;99.90;;;;;;4975850;28;20386;-90
2022/04/04 11:25:17;;;;;;;14.82;9.93;;;6.50;99.90;;;;;;4968042;28;20030;-90
2022/04/04 11:27:48;;;;;;;15.52;9.73;;;6.50;99.90;;;;;;4977855;28;20030;-91
2022/04/04 11:30:18;;;;;;;14.15;10.38;;;6.50;99.90;;;;;;4976127;28;20030;-89
2022/04/04 11:32:46;;;;;;;12.20;9.50;;;6.50;99.90;;;;;;4986437;28;20018;-89
2022/04/04 11:35:25;;;;;;;14.57;8.80;;;6.60;99.90;;;;;;4971434;28;20081;-90
2022/04/04 11:37:54;;;;;;;11.35;7.30;;;6.60;99.90;;;;;;4968642;28;20025;-90
2022/04/04 11:40:29;;;;;;;13.52;9.45;;;6.60;99.90;;;;;;4977258;28;20030;-89
2022/04/04 11:42:56;;;;;;;13.45;8.40;;;6.60;99.90;;;;;;4965239;28;20446;-90
2022/04/04 11:45:27;;;;;;;12.70;9.93;;;6.60;99.90;;;;;;4976471;28;20018;-89
2022/04/04 11:48:00;;;;;;;12.02;9.50;;;6.50;99.90;;;;;;4971536;28;20081;-90
2022/04/04 11:50:28;;;;;;;12.50;9.30;;;6.50;99.90;;;;;;4971338;28;20156;-90
2022/04/04 11:52:59;;;;;;;13.73;9.82;;;6.50;99.90;;;;;;4974654;28;20038;-90
2022/04/04 11:55:25;;;;;;;12.85;9.25;;;6.50;99.90;;;;;;4990294;28;20070;-90
2022/04/04 11:57:57;;;;;;;12.77;8.68;;;6.60;99.90;;;;;;4970930;28;20514;-91
2022/04/04 12:00:27;;;;;;;14.10;8.70;;;6.60;99.90;;;;;;4973395;28;20061;-92
2022/04/04 12:02:53;;;;;;;14.20;9.25;;;6.60;99.90;;;;;;4973654;28;20035;-91
2022/04/04 12:05:23;;;;;;;12.52;8.88;;;6.60;99.90;;;;;;4974163;28;20034;-92
2022/04/04 12:07:50;;;;;;;14.00;8.60;;;6.60;99.90;;;;;;4972108;28;20039;-92
2022/04/04 12:10:24;;;;;;;11.73;9.25;;;6.60;99.90;;;;;;4977600;28;20030;-92
2022/04/04 12:13:01;;;;;;;11.27;8.38;;;6.60;99.90;;;;;;4969474;28;20428;-92
2022/04/04 12:15:33;;;;;;;13.43;9.48;;;6.60;99.90;;;;;;4964002;28;20037;-91
2022/04/04 12:18:00;;;;;;;12.95;8.20;;;6.60;99.90;;;;;;4964405;28;20038;-91
2022/04/04 12:20:45;;;;;;;13.73;8.60;;;6.60;99.90;;;;;;4968375;28;20026;-90
2022/04/04 12:25:59;;;;;;;9.98;8.43;;;6.60;99.90;;;;;;4991213;28;20033;-90
2022/04/04 12:28:29;;;;;;;12.63;9.45;;;6.60;99.90;;;;;;4975665;28;20384;-90
2022/04/04 12:30:56;;;;;;;10.32;8.23;;;6.60;99.90;;;;;;4974106;28;20019;-90
2022/04/04 12:33:30;;;;;;;10.75;8.25;;;6.50;99.90;;;;;;4979237;28;20030;-91
2022/04/04 12:35:56;;;;;;;10.95;8.13;;;6.50;99.90;;;;;;4990054;28;20026;-91
2022/04/04 12:38:26;;;;;;;11.25;7.57;;;6.50;99.90;;;;;;4978694;28;20126;-91
2022/04/04 12:41:07;;;;;;;11.25;7.75;;;6.50;99.90;;;;;;4975660;28;20037;-92
2022/04/04 12:43:33;;;;;;;13.00;8.23;;;6.50;99.90;;;;;;4979681;28;20034;-92
2022/04/04 12:45:59;;;;;;;9.98;8.23;;;6.40;99.90;;;;;;4978665;28;20068;-94
2022/04/04 12:48:40;;;;;;;10.65;7.85;;;6.40;99.90;;;;;;4982683;28;20493;-91
2022/04/04 12:51:07;;;;;;;9.23;8.23;;;6.40;99.90;;;;;;4974599;28;20038;-92
2022/04/04 12:53:49;;;;;;;10.13;7.72;;;6.40;99.90;;;;;;4968772;28;20054;-92
2022/04/04 12:56:15;;;;;;;12.65;8.73;;;6.40;99.90;;;;;;4977356;28;20034;-91
2022/04/04 12:58:41;;;;;;;9.30;8.20;;;6.40;99.90;;;;;;4968518;28;20030;-93
2022/04/04 13:01:12;;;;;;;9.27;7.82;;;6.40;99.90;;;;;;4977263;28;20438;-92
2022/04/04 13:03:52;;;;;;;11.15;8.70;;;6.40;99.90;;;;;;4981125;28;20029;-93
2022/04/04 13:06:19;;;;;;;9.48;7.47;;;6.40;99.90;;;;;;4972462;28;20031;-93
2022/04/04 13:09:00;;;;;;;10.57;8.32;;;6.40;99.90;;;;;;4976507;28;20034;-91